createdAt,value
2022-11-06T00:04:32.042Z,0.32
2022-11-06T00:14:34.661Z,0.50
2022-11-06T00:24:36.435Z,0.52
2022-11-06T00:34:38.186Z,0.63
2022-11-06T00:44:39.938Z,0.40
2022-11-06T00:54:41.699Z,0.40
2022-11-06T01:04:43.444Z,0.43
2022-11-06T01:14:46.400Z,0.40
2022-11-06T01:24:48.297Z,0.40
2022-11-06T01:34:51.368Z,0.35
2022-11-06T01:45:08.201Z,0.50
2022-11-06T01:55:19.073Z,0.50
2022-11-06T02:05:21.051Z,0.40
2022-11-06T02:15:31.949Z,0.50
2022-11-06T02:25:52.635Z,0.40
2022-11-06T02:36:03.115Z,0.40
2022-11-06T02:46:28.681Z,0.50
2022-11-06T02:56:37.280Z,0.50
2022-11-06T03:06:45.380Z,0.40
2022-11-06T03:17:13.109Z,0.50
2022-11-06T03:27:20.151Z,0.35
2022-11-06T03:37:36.497Z,0.45
2022-11-06T03:47:48.717Z,0.40
2022-11-06T03:58:04.896Z,0.40
2022-11-06T04:08:28.209Z,0.40
2022-11-06T04:18:30.052Z,0.30
2022-11-06T04:28:38.530Z,0.30
2022-11-06T04:38:44.990Z,0.40
2022-11-06T04:48:47.830Z,0.32
2022-11-06T04:58:49.612Z,0.25
2022-11-06T05:08:51.482Z,0.30
2022-11-06T05:18:53.334Z,0.22
2022-11-06T05:28:55.078Z,0.20
2022-11-06T05:38:56.912Z,0.30
2022-11-06T05:48:58.759Z,0.20
2022-11-06T05:59:00.498Z,0.28
2022-11-06T06:09:02.311Z,0.20
2022-11-06T06:19:04.100Z,0.20
2022-11-06T06:29:05.918Z,0.22
2022-11-06T06:39:07.693Z,0.20
2022-11-06T06:49:09.861Z,0.20
2022-11-06T06:59:11.596Z,0.13
2022-11-06T07:09:13.506Z,0.20
2022-11-06T07:19:15.266Z,0.20
2022-11-06T07:29:17.251Z,0.20
2022-11-06T07:39:19.044Z,0.28
2022-11-06T07:49:20.816Z,0.20
2022-11-06T07:59:22.616Z,0.20
2022-11-06T08:09:27.141Z,0.20
2022-11-06T08:19:28.952Z,0.20
2022-11-06T08:29:30.740Z,0.10
2022-11-06T08:39:32.563Z,0.22
2022-11-06T08:49:34.383Z,0.20
2022-11-06T08:59:36.142Z,0.20
2022-11-06T09:09:37.957Z,0.30
2022-11-06T09:19:39.717Z,0.30
2022-11-06T09:29:43.926Z,0.40
2022-11-06T09:39:45.727Z,0.30
2022-11-06T09:49:53.653Z,0.32
2022-11-06T09:59:56.386Z,0.30
2022-11-06T10:09:59.439Z,0.30
2022-11-06T10:20:22.179Z,0.40
2022-11-06T10:30:56.006Z,0.35
2022-11-06T10:40:57.819Z,0.15
2022-11-06T10:51:02.632Z,0.30
2022-11-06T11:01:08.985Z,0.30
2022-11-06T11:11:13.551Z,0.30
2022-11-06T11:21:18.401Z,0.32
2022-11-06T11:31:20.507Z,0.20
2022-11-06T11:41:25.805Z,0.30
2022-11-06T11:51:38.527Z,0.45
2022-11-06T12:01:41.279Z,0.30
2022-11-06T12:11:43.663Z,0.25
2022-11-06T12:21:49.409Z,0.20
2022-11-06T12:32:07.201Z,0.30
2022-11-06T12:42:12.153Z,0.20
2022-11-06T12:52:35.466Z,0.30
2022-11-06T13:02:58.734Z,0.30
2022-11-06T13:13:25.116Z,0.50
2022-11-06T13:23:36.483Z,0.22
2022-11-06T13:33:51.192Z,0.40
2022-11-06T13:44:04.471Z,0.22
2022-11-06T13:54:18.123Z,0.50
2022-11-06T14:04:19.847Z,0.60
2022-11-06T14:14:21.576Z,0.60
2022-11-06T14:24:30.743Z,1.30
2022-11-06T14:34:35.011Z,0.73
2022-11-06T14:44:43.585Z,0.77
2022-11-06T14:55:05.236Z,0.50
2022-11-06T15:05:15.658Z,0.52
2022-11-06T15:15:18.732Z,0.63
2022-11-06T15:25:27.463Z,0.68
2022-11-06T15:35:34.655Z,0.80
2022-11-06T15:45:36.537Z,0.65
2022-11-06T15:55:55.102Z,0.70
2022-11-06T16:05:58.889Z,0.70
2022-11-06T16:16:03.938Z,0.80
2022-11-06T16:26:12.291Z,0.60
2022-11-06T16:36:14.285Z,0.80
2022-11-06T16:46:16.062Z,0.60
2022-11-06T16:56:27.571Z,0.90
2022-11-06T17:06:32.254Z,0.90
2022-11-06T17:16:49.674Z,0.55
2022-11-06T17:26:52.947Z,0.70
2022-11-06T17:36:54.791Z,0.80
2022-11-06T17:46:56.932Z,0.50
2022-11-06T17:57:01.001Z,0.63
2022-11-06T18:07:02.768Z,0.70
2022-11-06T18:17:04.646Z,0.70
2022-11-06T18:27:06.499Z,0.65
2022-11-06T18:37:08.290Z,0.70
2022-11-06T18:47:10.154Z,0.80
2022-11-06T18:57:12.007Z,0.77
2022-11-06T19:07:13.832Z,0.63
2022-11-06T19:17:15.666Z,0.60
2022-11-06T19:27:17.411Z,0.70
2022-11-06T19:37:19.237Z,0.80
2022-11-06T19:47:21.082Z,0.73
2022-11-06T19:57:29.371Z,0.70
2022-11-06T20:07:32.241Z,0.70
